createdAt,value
2019-04-21T00:01:39.882Z,15.30
2019-04-21T00:04:53.187Z,15.20
2019-04-21T00:08:15.115Z,15.10
2019-04-21T00:11:20.915Z,15.00
2019-04-21T00:14:09.031Z,14.80
2019-04-21T00:17:12.403Z,14.80
2019-04-21T00:20:26.087Z,14.70
2019-04-21T00:23:41.212Z,14.60
2019-04-21T00:26:49.324Z,14.60
2019-04-21T00:29:58.797Z,14.60
2019-04-21T00:32:53.483Z,14.40
2019-04-21T00:35:59.479Z,14.40
2019-04-21T00:39:31.624Z,14.30
2019-04-21T00:42:25.771Z,14.20
2019-04-21T00:45:26.549Z,14.20
2019-04-21T00:48:42.464Z,14.10
2019-04-21T00:52:11.647Z,14.10
2019-04-21T00:58:30.101Z,14.10
2019-04-21T01:01:31.361Z,14.10
2019-04-21T01:04:47.518Z,14.00
2019-04-21T01:07:58.032Z,13.90
2019-04-21T01:10:46.805Z,13.80
2019-04-21T01:14:07.021Z,13.70
2019-04-21T01:17:13.002Z,13.60
2019-04-21T01:20:08.189Z,13.50
2019-04-21T01:23:02.296Z,13.50
2019-04-21T01:26:22.620Z,13.40
2019-04-21T01:29:37.730Z,13.30
2019-04-21T01:32:46.855Z,13.30
2019-04-21T01:35:48.471Z,13.20
2019-04-21T01:39:01.028Z,13.10
2019-04-21T01:42:03.555Z,13.10
2019-04-21T01:45:12.782Z,13.10
2019-04-21T01:48:10.334Z,13.00
2019-04-21T01:51:22.498Z,13.00
2019-04-21T01:54:56.042Z,13.00
2019-04-21T01:57:57.644Z,13.00
2019-04-21T02:01:08.511Z,13.00
2019-04-21T02:04:26.977Z,12.90
2019-04-21T02:07:27.113Z,12.90
2019-04-21T02:10:40.395Z,12.90
2019-04-21T02:13:48.898Z,12.90
2019-04-21T02:16:49.608Z,12.80
2019-04-21T02:19:53.444Z,12.80
2019-04-21T02:26:09.795Z,12.60
2019-04-21T02:29:18.944Z,12.60
2019-04-21T02:32:38.938Z,12.50
2019-04-21T02:38:51.715Z,12.40
2019-04-21T02:42:01.695Z,12.40
2019-04-21T02:48:26.020Z,12.30
2019-04-21T02:51:17.499Z,12.30
2019-04-21T02:54:42.053Z,12.30
2019-04-21T02:57:26.915Z,12.20
2019-04-21T03:00:34.638Z,12.10
2019-04-21T03:03:54.465Z,12.10
2019-04-21T03:13:54.730Z,11.90
2019-04-21T03:16:47.045Z,11.80
2019-04-21T03:19:59.929Z,11.70
2019-04-21T03:29:19.726Z,11.40
2019-04-21T03:42:04.002Z,11.30
2019-04-21T03:48:05.248Z,11.30
2019-04-21T03:51:02.668Z,11.20
2019-04-21T03:54:13.774Z,11.10
2019-04-21T03:57:34.342Z,11.10
2019-04-21T04:07:39.551Z,11.00
2019-04-21T04:10:34.305Z,10.90
2019-04-21T04:23:02.814Z,10.70
2019-04-21T04:26:07.617Z,10.60
2019-04-21T04:29:22.557Z,10.60
2019-04-21T04:32:25.301Z,10.50
2019-04-21T04:35:34.087Z,10.50
2019-04-21T04:38:39.343Z,10.50
2019-04-21T04:42:03.590Z,10.40
2019-04-21T04:51:14.840Z,10.40
2019-04-21T04:54:37.152Z,10.30
2019-04-21T04:57:40.116Z,10.20
2019-04-21T05:10:09.693Z,10.40
2019-04-21T05:12:56.933Z,10.40
2019-04-21T05:16:21.750Z,10.40
2019-04-21T05:22:25.985Z,10.40
2019-04-21T05:25:19.548Z,10.50
2019-04-21T05:28:21.911Z,10.50
2019-04-21T05:32:00.445Z,10.60
2019-04-21T05:35:24.463Z,10.70
2019-04-21T05:38:27.434Z,10.70
2019-04-21T05:41:26.583Z,10.80
2019-04-21T05:44:52.743Z,10.80
2019-04-21T05:48:22.861Z,10.90
2019-04-21T05:51:23.771Z,11.00
2019-04-21T05:57:43.153Z,11.20
2019-04-21T06:04:03.629Z,11.30
2019-04-21T06:07:18.785Z,11.40
2019-04-21T06:10:12.394Z,11.50
2019-04-21T06:13:26.834Z,11.60
2019-04-21T06:16:40.274Z,11.70
2019-04-21T06:19:43.527Z,11.80
2019-04-21T06:22:46.547Z,11.90
2019-04-21T06:28:57.861Z,12.20
2019-04-21T06:32:30.457Z,12.50
2019-04-21T06:35:48.309Z,12.80
2019-04-21T06:38:59.706Z,13.30
2019-04-21T06:41:53.106Z,13.60
2019-04-21T06:45:07.287Z,13.60
2019-04-21T06:48:12.333Z,13.60
2019-04-21T06:51:24.050Z,13.60
2019-04-21T06:54:23.915Z,13.60
2019-04-21T06:57:35.525Z,13.60
2019-04-21T07:00:38.774Z,13.70
2019-04-21T07:03:49.393Z,13.70
2019-04-21T07:13:03.249Z,14.10
2019-04-21T07:16:11.367Z,14.20
2019-04-21T07:19:31.935Z,14.30
2019-04-21T07:22:24.938Z,14.40
2019-04-21T07:25:32.726Z,14.60
2019-04-21T07:28:45.516Z,14.70
2019-04-21T07:31:54.395Z,14.80
2019-04-21T07:34:51.465Z,14.90
2019-04-21T07:38:01.285Z,15.00
2019-04-21T07:40:59.446Z,15.00
2019-04-21T07:43:59.168Z,15.20
2019-04-21T07:47:17.117Z,15.40
2019-04-21T07:50:33.091Z,15.50
2019-04-21T07:53:49.442Z,15.80
2019-04-21T07:56:34.887Z,16.00
2019-04-21T08:00:12.054Z,16.20
2019-04-21T08:03:09.601Z,16.30
2019-04-21T08:06:12.562Z,16.50
2019-04-21T08:09:11.842Z,16.70
2019-04-21T08:12:16.017Z,16.80
2019-04-21T08:21:44.687Z,17.20
2019-04-21T08:24:49.737Z,17.50
2019-04-21T08:31:04.828Z,17.80
2019-04-21T08:34:14.106Z,17.90
2019-04-21T08:37:18.757Z,18.00
2019-04-21T08:40:34.648Z,18.20
2019-04-21T08:46:40.838Z,18.60
2019-04-21T08:49:41.477Z,18.70
2019-04-21T08:53:09.447Z,18.90
2019-04-21T08:56:10.593Z,19.10
2019-04-21T08:59:36.527Z,19.20
2019-04-21T09:03:02.598Z,19.40
2019-04-21T09:06:09.283Z,19.50
2019-04-21T09:12:14.988Z,19.90
2019-04-21T09:15:25.216Z,20.10
2019-04-21T09:18:27.003Z,20.20
2019-04-21T09:21:42.397Z,20.30
2019-04-21T09:24:48.217Z,20.40
2019-04-21T09:27:47.313Z,20.40
2019-04-21T09:30:48.904Z,20.50
2019-04-21T09:33:50.784Z,20.70
2019-04-21T09:37:10.477Z,20.80
2019-04-21T09:40:01.333Z,20.90
2019-04-21T09:43:11.210Z,21.00
2019-04-21T09:46:14.176Z,21.10
2019-04-21T09:49:23.868Z,21.20
2019-04-21T09:52:33.329Z,21.30
2019-04-21T09:55:43.945Z,21.30
2019-04-21T09:58:45.760Z,21.40
2019-04-21T10:01:59.195Z,21.40
2019-04-21T10:04:52.912Z,21.30
2019-04-21T10:07:57.933Z,21.40
2019-04-21T10:11:03.242Z,21.50
2019-04-21T10:14:09.575Z,21.60
2019-04-21T10:17:25.038Z,21.60
2019-04-21T10:20:30.878Z,21.70
2019-04-21T10:23:35.965Z,21.80
2019-04-21T10:26:41.037Z,21.90
2019-04-21T10:29:47.260Z,21.90
2019-04-21T10:32:54.267Z,22.00
2019-04-21T10:35:59.510Z,22.10
2019-04-21T10:39:06.051Z,22.10
2019-04-21T10:42:11.333Z,22.10
2019-04-21T10:45:17.177Z,22.00
2019-04-21T10:48:23.117Z,22.10
2019-04-21T10:51:28.756Z,22.10
2019-04-21T10:54:56.209Z,22.10
2019-04-21T10:57:42.313Z,22.10
2019-04-21T11:00:48.390Z,22.10
2019-04-21T11:04:01.010Z,22.10
2019-04-21T11:07:31.111Z,22.00
2019-04-21T11:10:32.007Z,22.00
2019-04-21T11:13:37.196Z,22.20
2019-04-21T11:16:43.322Z,22.30
2019-04-21T11:19:48.966Z,22.40
2019-04-21T11:22:53.879Z,22.40
2019-04-21T11:26:00.141Z,22.40
2019-04-21T11:29:05.337Z,22.40
2019-04-21T11:32:10.258Z,22.40
2019-04-21T11:35:15.327Z,22.30
2019-04-21T11:38:30.003Z,22.30
2019-04-21T11:41:34.033Z,22.30
2019-04-21T11:44:39.525Z,22.40
2019-04-21T11:48:04.163Z,22.40
2019-04-21T11:51:09.190Z,22.50
2019-04-21T11:54:15.085Z,22.40
2019-04-21T11:57:24.619Z,22.40
2019-04-21T12:00:27.374Z,22.40
2019-04-21T12:03:33.652Z,22.50
2019-04-21T12:06:44.493Z,22.60
2019-04-21T12:09:45.746Z,22.50
2019-04-21T12:12:51.052Z,22.50
2019-04-21T12:15:57.152Z,22.50
2019-04-21T12:19:03.023Z,22.50
2019-04-21T12:22:17.272Z,22.60
2019-04-21T12:25:16.892Z,22.60
2019-04-21T12:28:21.985Z,22.60
2019-04-21T12:31:47.551Z,22.50
2019-04-21T12:34:53.912Z,22.50
2019-04-21T12:38:00.503Z,22.40
2019-04-21T12:41:06.615Z,22.40
2019-04-21T12:44:12.832Z,22.50
2019-04-21T12:47:18.005Z,22.60
2019-04-21T12:50:23.632Z,22.60
2019-04-21T12:53:29.745Z,22.50
2019-04-21T12:56:35.753Z,22.60
2019-04-21T12:59:40.764Z,22.60
2019-04-21T13:02:45.833Z,22.70
2019-04-21T13:05:51.732Z,22.60
2019-04-21T13:09:04.648Z,22.40
2019-04-21T13:12:04.798Z,22.40
2019-04-21T13:15:11.245Z,22.40
2019-04-21T13:18:16.482Z,22.40
2019-04-21T13:21:22.436Z,22.50
2019-04-21T13:24:27.612Z,22.60
2019-04-21T13:27:32.597Z,22.70
2019-04-21T13:30:38.048Z,22.80
2019-04-21T13:33:43.994Z,22.90
2019-04-21T13:36:49.859Z,23.00
2019-04-21T13:40:35.322Z,23.10
2019-04-21T13:43:27.370Z,23.20
2019-04-21T13:46:32.427Z,23.30
2019-04-21T13:49:37.421Z,23.50
2019-04-21T13:52:42.732Z,23.60
2019-04-21T13:55:48.668Z,23.60
2019-04-21T13:58:53.693Z,23.70
2019-04-21T14:01:58.751Z,23.90
2019-04-21T14:05:07.775Z,23.90
2019-04-21T14:08:11.335Z,24.10
2019-04-21T14:11:17.634Z,24.20
2019-04-21T14:14:23.911Z,24.30
2019-04-21T14:17:29.189Z,24.40
2019-04-21T14:20:35.245Z,24.40
2019-04-21T14:23:45.510Z,24.50
2019-04-21T14:26:47.919Z,24.60
2019-04-21T14:29:53.568Z,24.60
2019-04-21T14:33:00.195Z,24.80
2019-04-21T14:36:05.589Z,24.90
2019-04-21T14:39:12.401Z,25.10
2019-04-21T14:42:18.098Z,25.10
2019-04-21T14:45:48.433Z,25.30
2019-04-21T14:49:11.203Z,25.20
2019-04-21T14:52:23.116Z,25.20
2019-04-21T14:55:28.240Z,25.20
2019-04-21T14:58:33.246Z,25.30
2019-04-21T15:01:38.313Z,25.30
2019-04-21T15:04:43.917Z,25.30
2019-04-21T15:07:50.873Z,25.40
2019-04-21T15:10:56.864Z,25.50
2019-04-21T15:14:02.046Z,25.60
2019-04-21T15:17:07.228Z,25.70
2019-04-21T15:20:15.830Z,25.80
2019-04-21T15:23:20.407Z,25.80
2019-04-21T15:26:26.294Z,26.00
2019-04-21T15:29:32.899Z,26.10
2019-04-21T15:32:38.012Z,26.20
2019-04-21T15:35:43.086Z,26.20
2019-04-21T15:38:48.077Z,26.30
2019-04-21T15:41:54.463Z,26.40
2019-04-21T15:45:00.832Z,26.60
2019-04-21T15:48:07.742Z,26.60
2019-04-21T15:51:13.673Z,26.50
2019-04-21T15:54:18.904Z,26.50
2019-04-21T15:57:47.038Z,26.50
2019-04-21T16:01:14.506Z,26.50
2019-04-21T16:04:20.879Z,26.40
2019-04-21T16:07:26.391Z,26.50
2019-04-21T16:10:42.782Z,26.50
2019-04-21T16:13:39.574Z,26.50
2019-04-21T16:16:45.349Z,26.30
2019-04-21T16:19:50.353Z,25.90
2019-04-21T16:22:56.761Z,25.50
2019-04-21T16:26:02.593Z,25.20
2019-04-21T16:29:09.081Z,24.90
2019-04-21T16:32:18.366Z,24.60
2019-04-21T16:35:22.132Z,24.40
2019-04-21T16:38:29.292Z,24.10
2019-04-21T16:41:34.244Z,24.00
2019-04-21T16:44:39.321Z,23.80
2019-04-21T16:47:45.839Z,23.70
2019-04-21T16:50:51.965Z,23.60
2019-04-21T16:54:08.261Z,23.40
2019-04-21T16:57:24.015Z,23.40
2019-04-21T17:00:37.804Z,23.20
2019-04-21T17:03:36.840Z,23.10
2019-04-21T17:06:42.918Z,23.00
2019-04-21T17:09:48.604Z,22.90
2019-04-21T17:12:53.761Z,22.80
2019-04-21T17:16:13.442Z,22.70
2019-04-21T17:19:14.601Z,22.60
2019-04-21T17:22:13.641Z,22.50
2019-04-21T17:25:21.606Z,22.50
2019-04-21T17:28:27.679Z,22.40
2019-04-21T17:31:34.961Z,22.30
2019-04-21T17:34:41.023Z,22.30
2019-04-21T17:37:46.232Z,22.20
2019-04-21T17:40:51.759Z,22.10
2019-04-21T17:43:58.297Z,22.00
2019-04-21T17:47:11.344Z,22.00
2019-04-21T17:50:43.612Z,21.90
2019-04-21T17:53:56.934Z,21.80
2019-04-21T17:57:21.611Z,21.70
2019-04-21T18:00:49.460Z,21.60
2019-04-21T18:07:20.605Z,21.40
2019-04-21T18:10:22.223Z,21.40
2019-04-21T18:13:18.055Z,21.30
2019-04-21T18:16:30.572Z,21.20
2019-04-21T18:19:31.231Z,21.10
2019-04-21T18:22:53.526Z,21.10
2019-04-21T18:26:07.134Z,20.90
2019-04-21T18:29:07.532Z,20.80
2019-04-21T18:32:20.029Z,20.80
2019-04-21T18:35:35.757Z,20.70
2019-04-21T18:39:06.994Z,20.60
2019-04-21T18:42:21.257Z,20.50
2019-04-21T18:45:48.060Z,20.40
2019-04-21T18:48:52.151Z,20.40
2019-04-21T18:52:08.087Z,20.30
2019-04-21T18:55:19.056Z,20.20
2019-04-21T18:58:14.193Z,20.10
2019-04-21T19:01:24.501Z,20.10
2019-04-21T19:04:29.406Z,20.00
2019-04-21T19:07:51.863Z,20.00
2019-04-21T19:11:02.712Z,19.90
2019-04-21T19:18:11.178Z,19.70
2019-04-21T19:20:34.876Z,19.60
2019-04-21T19:23:58.143Z,19.60
2019-04-21T19:26:58.839Z,19.50
2019-04-21T19:30:05.145Z,19.40
2019-04-21T19:33:04.241Z,19.40
2019-04-21T19:35:55.390Z,19.30
2019-04-21T19:39:10.737Z,19.20
2019-04-21T19:42:18.306Z,19.20
2019-04-21T19:45:27.863Z,19.10
2019-04-21T19:48:44.711Z,19.00
2019-04-21T19:51:40.578Z,18.90
2019-04-21T19:54:40.874Z,18.90
2019-04-21T19:57:43.049Z,18.80
2019-04-21T20:00:50.867Z,18.70
2019-04-21T20:03:59.037Z,18.70
2019-04-21T20:07:17.477Z,18.60
2019-04-21T20:10:27.000Z,18.50
2019-04-21T20:13:45.338Z,18.50
2019-04-21T20:16:41.281Z,18.40
2019-04-21T20:19:30.016Z,18.40
2019-04-21T20:22:40.356Z,18.30
2019-04-21T20:25:48.787Z,18.30
2019-04-21T20:29:01.100Z,18.20
2019-04-21T20:32:20.168Z,18.20
2019-04-21T20:35:21.287Z,18.10
2019-04-21T20:38:19.157Z,18.10
2019-04-21T20:41:29.678Z,18.00
2019-04-21T20:44:42.313Z,17.90
2019-04-21T20:47:35.497Z,17.90
2019-04-21T20:50:56.263Z,17.80
2019-04-21T20:53:53.667Z,17.80
2019-04-21T20:57:06.048Z,17.70
2019-04-21T21:00:12.347Z,17.70
2019-04-21T21:03:21.324Z,17.60
2019-04-21T21:06:27.685Z,17.60
2019-04-21T21:09:29.263Z,17.60
2019-04-21T21:12:43.181Z,17.50
2019-04-21T21:16:01.232Z,17.50
2019-04-21T21:19:06.921Z,17.40
2019-04-21T21:21:56.373Z,17.40
2019-04-21T21:25:07.184Z,17.30
2019-04-21T21:28:04.355Z,17.30
2019-04-21T21:31:19.051Z,17.20
2019-04-21T21:34:33.086Z,17.20
2019-04-21T21:37:36.856Z,17.10
2019-04-21T21:40:36.754Z,17.10
2019-04-21T21:43:32.424Z,17.00
2019-04-21T21:46:48.677Z,17.00
2019-04-21T21:49:55.460Z,16.90
2019-04-21T21:52:58.927Z,16.90
2019-04-21T21:55:56.393Z,16.80
2019-04-21T21:59:11.737Z,16.70
2019-04-21T22:02:09.475Z,16.70
2019-04-21T22:05:23.479Z,16.60
2019-04-21T22:08:24.679Z,16.40
2019-04-21T22:11:29.873Z,16.40
2019-04-21T22:14:41.669Z,16.30
2019-04-21T22:17:54.045Z,16.30
2019-04-21T22:21:02.291Z,16.30
2019-04-21T22:24:00.588Z,16.20
2019-04-21T22:27:01.405Z,16.10
2019-04-21T22:30:11.382Z,16.00
2019-04-21T22:33:18.103Z,16.00
2019-04-21T22:36:35.376Z,15.90
2019-04-21T22:39:45.977Z,15.90
2019-04-21T22:42:44.940Z,15.80
2019-04-21T22:45:41.429Z,15.70
2019-04-21T22:48:55.901Z,15.60
2019-04-21T22:51:53.880Z,15.50
2019-04-21T22:55:02.070Z,15.40
2019-04-21T22:58:07.686Z,15.30
2019-04-21T23:01:13.231Z,15.20
2019-04-21T23:04:18.405Z,15.10
2019-04-21T23:07:24.719Z,15.10
2019-04-21T23:10:30.026Z,15.10
2019-04-21T23:13:36.383Z,15.00
2019-04-21T23:16:45.279Z,15.00
2019-04-21T23:20:14.034Z,15.00
2019-04-21T23:23:19.158Z,14.90
2019-04-21T23:26:23.800Z,14.90
2019-04-21T23:29:38.787Z,14.90
2019-04-21T23:32:27.598Z,14.90
2019-04-21T23:35:31.985Z,14.80
2019-04-21T23:38:36.544Z,14.80
2019-04-21T23:41:43.479Z,14.80
2019-04-21T23:44:47.486Z,14.70
2019-04-21T23:48:01.379Z,14.70
2019-04-21T23:51:10.893Z,14.60
2019-04-21T23:54:02.113Z,14.60
2019-04-21T23:57:14.323Z,14.60
